sensor_id;sensor_type;location;lat;lon;timestamp;temperature;humidity
11569;DHT22;5840;46.894;15.542;2023-03-20T00:00:29;7.50;99.90
11569;DHT22;5840;46.894;15.542;2023-03-20T00:02:57;7.50;99.90
11569;DHT22;5840;46.894;15.542;2023-03-20T00:05:25;7.40;99.90
11569;DHT22;5840;46.894;15.542;2023-03-20T00:07:54;7.40;99.90
11569;DHT22;5840;46.894;15.542;2023-03-20T00:10:24;7.40;99.90
11569;DHT22;5840;46.894;15.542;2023-03-20T00:12:52;7.40;99.90
11569;DHT22;5840;46.894;15.542;2023-03-20T00:15:27;7.40;99.90
11569;DHT22;5840;46.894;15.542;2023-03-20T00:17:55;7.40;99.90
11569;DHT22;5840;46.894;15.542;2023-03-20T00:20:22;7.40;99.90
11569;DHT22;5840;46.894;15.542;2023-03-20T00:22:49;7.30;99.90
11569;DHT22;5840;46.894;15.542;2023-03-20T00:25:20;7.30;99.90
11569;DHT22;5840;46.894;15.542;2023-03-20T00:27:48;7.30;99.90
11569;DHT22;5840;46.894;15.542;2023-03-20T00:30:24;7.30;99.90
11569;DHT22;5840;46.894;15.542;2023-03-20T00:32:54;7.30;99.90
11569;DHT22;5840;46.894;15.542;2023-03-20T00:35:24;7.30;99.90
11569;DHT22;5840;46.894;15.542;2023-03-20T00:37:53;7.20;99.90
11569;DHT22;5840;46.894;15.542;2023-03-20T00:40:22;7.20;99.90
11569;DHT22;5840;46.894;15.542;2023-03-20T00:42:59;7.20;99.90
11569;DHT22;5840;46.894;15.542;2023-03-20T00:45:28;7.20;99.90
11569;DHT22;5840;46.894;15.542;2023-03-20T00:47:55;7.10;99.90
11569;DHT22;5840;46.894;15.542;2023-03-20T00:50:25;7.20;99.90
11569;DHT22;5840;46.894;15.542;2023-03-20T00:52:54;7.10;99.90
11569;DHT22;5840;46.894;15.542;2023-03-20T00:55:26;7.10;99.90
11569;DHT22;5840;46.894;15.542;2023-03-20T00:57:55;7.10;99.90
11569;DHT22;5840;46.894;15.542;2023-03-20T01:00:31;7.10;99.90
11569;DHT22;5840;46.894;15.542;2023-03-20T01:03:01;7.10;99.90
11569;DHT22;5840;46.894;15.542;2023-03-20T01:05:30;7.20;99.90
11569;DHT22;5840;46.894;15.542;2023-03-20T01:07:57;7.20;99.90
11569;DHT22;5840;46.894;15.542;2023-03-20T01:10:28;7.20;99.90
11569;DHT22;5840;46.894;15.542;2023-03-20T01:13:00;7.20;99.90
11569;DHT22;5840;46.894;15.542;2023-03-20T01:15:31;7.10;99.90
11569;DHT22;5840;46.894;15.542;2023-03-20T01:17:58;7.10;99.90
11569;DHT22;5840;46.894;15.542;2023-03-20T01:20:27;7.10;99.90
11569;DHT22;5840;46.894;15.542;2023-03-20T01:22:54;7.10;99.90
11569;DHT22;5840;46.894;15.542;2023-03-20T01:25:21;7.10;99.90
11569;DHT22;5840;46.894;15.542;2023-03-20T01:27:51;7.10;99.90
11569;DHT22;5840;46.894;15.542;2023-03-20T01:30:22;7.10;99.90
11569;DHT22;5840;46.894;15.542;2023-03-20T01:32:49;7.10;99.90
11569;DHT22;5840;46.894;15.542;2023-03-20T01:35:19;7.10;99.90
11569;DHT22;5840;46.894;15.542;2023-03-20T01:37:46;7.10;99.90
11569;DHT22;5840;46.894;15.542;2023-03-20T01:40:30;7.10;99.90
11569;DHT22;5840;46.894;15.542;2023-03-20T01:43:01;7.10;99.90
11569;DHT22;5840;46.894;15.542;2023-03-20T01:45:32;7.20;99.90
11569;DHT22;5840;46.894;15.542;2023-03-20T01:48:04;7.20;99.90
11569;DHT22;5840;46.894;15.542;2023-03-20T01:50:38;7.20;99.90
11569;DHT22;5840;46.894;15.542;2023-03-20T01:53:09;7.20;99.90
11569;DHT22;5840;46.894;15.542;2023-03-20T01:55:39;7.20;99.90
11569;DHT22;5840;46.894;15.542;2023-03-20T01:58:13;7.20;99.90
11569;DHT22;5840;46.894;15.542;2023-03-20T02:00:41;7.20;99.90
11569;DHT22;5840;46.894;15.542;2023-03-20T02:03:08;7.20;99.90
11569;DHT22;5840;46.894;15.542;2023-03-20T02:05:36;7.10;99.90
11569;DHT22;5840;46.894;15.542;2023-03-20T02:08:16;7.00;99.90
11569;DHT22;5840;46.894;15.542;2023-03-20T02:10:45;7.00;99.90
11569;DHT22;5840;46.894;15.542;2023-03-20T02:13:14;6.90;99.90
11569;DHT22;5840;46.894;15.542;2023-03-20T02:16:02;6.90;99.90
11569;DHT22;5840;46.894;15.542;2023-03-20T02:18:30;6.90;99.90
11569;DHT22;5840;46.894;15.542;2023-03-20T02:24:48;6.80;99.90
11569;DHT22;5840;46.894;15.542;2023-03-20T02:27:23;6.80;99.90
11569;DHT22;5840;46.894;15.542;2023-03-20T02:30:17;6.80;99.90
11569;DHT22;5840;46.894;15.542;2023-03-20T02:39:34;6.60;99.90
11569;DHT22;5840;46.894;15.542;2023-03-20T02:42:07;6.50;99.90
11569;DHT22;5840;46.894;15.542;2023-03-20T02:44:43;6.50;99.90
11569;DHT22;5840;46.894;15.542;2023-03-20T02:47:14;6.50;99.90
11569;DHT22;5840;46.894;15.542;2023-03-20T02:49:53;6.50;99.90
11569;DHT22;5840;46.894;15.542;2023-03-20T02:52:25;6.50;99.90
11569;DHT22;5840;46.894;15.542;2023-03-20T02:55:08;6.50;99.90
11569;DHT22;5840;46.894;15.542;2023-03-20T02:57:43;6.50;99.90
11569;DHT22;5840;46.894;15.542;2023-03-20T03:00:14;6.40;99.90
11569;DHT22;5840;46.894;15.542;2023-03-20T03:02:51;6.40;99.90
11569;DHT22;5840;46.894;15.542;2023-03-20T03:05:21;6.40;99.90
11569;DHT22;5840;46.894;15.542;2023-03-20T03:07:51;6.40;99.90
11569;DHT22;5840;46.894;15.542;2023-03-20T03:10:24;6.40;99.90
11569;DHT22;5840;46.894;15.542;2023-03-20T03:12:55;6.40;99.90
11569;DHT22;5840;46.894;15.542;2023-03-20T03:15:27;6.40;99.90
11569;DHT22;5840;46.894;15.542;2023-03-20T03:17:57;6.40;99.90
11569;DHT22;5840;46.894;15.542;2023-03-20T03:20:29;6.40;99.90
11569;DHT22;5840;46.894;15.542;2023-03-20T03:22:57;6.40;99.90
11569;DHT22;5840;46.894;15.542;2023-03-20T03:25:28;6.40;99.90
11569;DHT22;5840;46.894;15.542;2023-03-20T03:28:00;6.40;99.90
11569;DHT22;5840;46.894;15.542;2023-03-20T03:30:30;6.40;99.90
11569;DHT22;5840;46.894;15.542;2023-03-20T03:33:08;6.30;99.90
11569;DHT22;5840;46.894;15.542;2023-03-20T03:35:39;6.30;99.90
11569;DHT22;5840;46.894;15.542;2023-03-20T03:38:19;6.40;99.90
11569;DHT22;5840;46.894;15.542;2023-03-20T03:40:57;6.40;99.90
11569;DHT22;5840;46.894;15.542;2023-03-20T03:43:32;6.40;99.90
11569;DHT22;5840;46.894;15.542;2023-03-20T03:46:03;6.50;99.90
11569;DHT22;5840;46.894;15.542;2023-03-20T03:48:34;6.50;99.90
11569;DHT22;5840;46.894;15.542;2023-03-20T03:51:06;6.50;99.90
11569;DHT22;5840;46.894;15.542;2023-03-20T03:53:38;6.50;99.90
11569;DHT22;5840;46.894;15.542;2023-03-20T03:56:10;6.60;99.90
11569;DHT22;5840;46.894;15.542;2023-03-20T03:58:41;6.60;99.90
11569;DHT22;5840;46.894;15.542;2023-03-20T04:01:11;6.70;99.90
11569;DHT22;5840;46.894;15.542;2023-03-20T04:03:44;6.70;99.90
11569;DHT22;5840;46.894;15.542;2023-03-20T04:06:12;6.80;99.90
11569;DHT22;5840;46.894;15.542;2023-03-20T04:08:40;6.80;99.90
11569;DHT22;5840;46.894;15.542;2023-03-20T04:11:13;6.80;99.90
11569;DHT22;5840;46.894;15.542;2023-03-20T04:13:41;6.90;99.90
11569;DHT22;5840;46.894;15.542;2023-03-20T04:16:11;6.90;99.90
11569;DHT22;5840;46.894;15.542;2023-03-20T04:18:38;6.80;99.90
11569;DHT22;5840;46.894;15.542;2023-03-20T04:21:06;6.80;99.90
11569;DHT22;5840;46.894;15.542;2023-03-20T04:23:33;6.80;99.90
11569;DHT22;5840;46.894;15.542;2023-03-20T04:26:00;6.80;99.90
11569;DHT22;5840;46.894;15.542;2023-03-20T04:28:29;6.80;99.90
11569;DHT22;5840;46.894;15.542;2023-03-20T04:30:58;6.90;99.90
11569;DHT22;5840;46.894;15.542;2023-03-20T04:33:27;6.90;99.90
11569;DHT22;5840;46.894;15.542;2023-03-20T04:35:54;6.90;99.90
11569;DHT22;5840;46.894;15.542;2023-03-20T04:38:21;6.90;99.90
11569;DHT22;5840;46.894;15.542;2023-03-20T04:40:49;6.90;99.90
11569;DHT22;5840;46.894;15.542;2023-03-20T04:43:16;6.80;99.90
11569;DHT22;5840;46.894;15.542;2023-03-20T04:45:44;6.80;99.90
11569;DHT22;5840;46.894;15.542;2023-03-20T04:48:11;6.70;99.90
11569;DHT22;5840;46.894;15.542;2023-03-20T04:50:38;6.70;99.90
11569;DHT22;5840;46.894;15.542;2023-03-20T04:53:05;6.70;99.90
11569;DHT22;5840;46.894;15.542;2023-03-20T04:55:32;6.70;99.90
11569;DHT22;5840;46.894;15.542;2023-03-20T04:57:59;6.70;99.90
11569;DHT22;5840;46.894;15.542;2023-03-20T05:00:26;6.80;99.90
11569;DHT22;5840;46.894;15.542;2023-03-20T05:02:54;6.80;99.90
11569;DHT22;5840;46.894;15.542;2023-03-20T05:05:21;6.80;99.90
11569;DHT22;5840;46.894;15.542;2023-03-20T05:07:49;6.80;99.90
11569;DHT22;5840;46.894;15.542;2023-03-20T05:10:16;6.80;99.90
11569;DHT22;5840;46.894;15.542;2023-03-20T05:12:43;6.90;99.90
11569;DHT22;5840;46.894;15.542;2023-03-20T05:15:10;6.90;99.90
11569;DHT22;5840;46.894;15.542;2023-03-20T05:17:37;6.90;99.90
11569;DHT22;5840;46.894;15.542;2023-03-20T05:20:07;6.90;99.90
11569;DHT22;5840;46.894;15.542;2023-03-20T05:22:34;6.90;99.90
11569;DHT22;5840;46.894;15.542;2023-03-20T05:25:01;6.90;99.90
11569;DHT22;5840;46.894;15.542;2023-03-20T05:27:28;7.00;99.90
11569;DHT22;5840;46.894;15.542;2023-03-20T05:29:55;7.00;99.90
11569;DHT22;5840;46.894;15.542;2023-03-20T05:32:22;7.00;99.90
11569;DHT22;5840;46.894;15.542;2023-03-20T05:34:49;7.00;99.90
11569;DHT22;5840;46.894;15.542;2023-03-20T05:37:17;7.00;99.90
11569;DHT22;5840;46.894;15.542;2023-03-20T05:39:44;7.10;99.90
11569;DHT22;5840;46.894;15.542;2023-03-20T05:42:11;7.10;99.90
11569;DHT22;5840;46.894;15.542;2023-03-20T05:44:38;7.10;99.90
11569;DHT22;5840;46.894;15.542;2023-03-20T05:47:05;7.00;99.90
11569;DHT22;5840;46.894;15.542;2023-03-20T05:49:32;7.10;99.90
11569;DHT22;5840;46.894;15.542;2023-03-20T05:51:59;7.10;99.90
11569;DHT22;5840;46.894;15.542;2023-03-20T05:54:28;7.10;99.90
11569;DHT22;5840;46.894;15.542;2023-03-20T05:56:54;7.10;99.90
11569;DHT22;5840;46.894;15.542;2023-03-20T05:59:21;7.10;99.90
11569;DHT22;5840;46.894;15.542;2023-03-20T06:01:48;7.10;99.90
11569;DHT22;5840;46.894;15.542;2023-03-20T06:04:16;7.10;99.90
11569;DHT22;5840;46.894;15.542;2023-03-20T06:06:43;7.10;99.90
11569;DHT22;5840;46.894;15.542;2023-03-20T06:09:10;7.10;99.90
11569;DHT22;5840;46.894;15.542;2023-03-20T06:11:38;7.20;99.90
11569;DHT22;5840;46.894;15.542;2023-03-20T06:14:05;7.20;99.90
11569;DHT22;5840;46.894;15.542;2023-03-20T06:16:32;7.20;99.90
11569;DHT22;5840;46.894;15.542;2023-03-20T06:18:59;7.30;99.90
11569;DHT22;5840;46.894;15.542;2023-03-20T06:21:26;7.30;99.90
11569;DHT22;5840;46.894;15.542;2023-03-20T06:23:53;7.40;99.90
11569;DHT22;5840;46.894;15.542;2023-03-20T06:26:20;7.50;99.90
11569;DHT22;5840;46.894;15.542;2023-03-20T06:28:48;7.50;99.90
11569;DHT22;5840;46.894;15.542;2023-03-20T06:31:15;7.50;99.90
11569;DHT22;5840;46.894;15.542;2023-03-20T06:33:42;7.60;99.90
11569;DHT22;5840;46.894;15.542;2023-03-20T06:36:10;7.60;99.90
11569;DHT22;5840;46.894;15.542;2023-03-20T06:38:37;7.70;99.90
11569;DHT22;5840;46.894;15.542;2023-03-20T06:41:04;7.70;99.90
11569;DHT22;5840;46.894;15.542;2023-03-20T06:43:31;7.80;99.90
11569;DHT22;5840;46.894;15.542;2023-03-20T06:46:00;7.90;99.90
11569;DHT22;5840;46.894;15.542;2023-03-20T06:48:27;8.00;99.90
11569;DHT22;5840;46.894;15.542;2023-03-20T06:50:54;8.00;99.90
11569;DHT22;5840;46.894;15.542;2023-03-20T06:53:20;8.10;99.90
11569;DHT22;5840;46.894;15.542;2023-03-20T06:55:48;8.20;99.90
11569;DHT22;5840;46.894;15.542;2023-03-20T06:58:16;8.10;99.90
11569;DHT22;5840;46.894;15.542;2023-03-20T07:00:43;8.10;99.90
11569;DHT22;5840;46.894;15.542;2023-03-20T07:03:12;8.10;99.90
11569;DHT22;5840;46.894;15.542;2023-03-20T07:05:40;8.10;99.90
11569;DHT22;5840;46.894;15.542;2023-03-20T07:08:07;8.20;99.90
11569;DHT22;5840;46.894;15.542;2023-03-20T07:10:35;8.20;99.90
11569;DHT22;5840;46.894;15.542;2023-03-20T07:13:02;8.20;99.90
11569;DHT22;5840;46.894;15.542;2023-03-20T07:15:29;8.30;99.90
11569;DHT22;5840;46.894;15.542;2023-03-20T07:17:57;8.40;99.90
11569;DHT22;5840;46.894;15.542;2023-03-20T07:20:25;8.50;99.90
11569;DHT22;5840;46.894;15.542;2023-03-20T07:22:52;8.60;99.90
11569;DHT22;5840;46.894;15.542;2023-03-20T07:25:20;8.70;99.90
11569;DHT22;5840;46.894;15.542;2023-03-20T07:27:47;8.80;99.90
11569;DHT22;5840;46.894;15.542;2023-03-20T07:30:15;8.90;99.90
11569;DHT22;5840;46.894;15.542;2023-03-20T07:32:43;9.10;99.90
11569;DHT22;5840;46.894;15.542;2023-03-20T07:35:10;9.20;99.90
11569;DHT22;5840;46.894;15.542;2023-03-20T07:37:39;9.40;99.90
11569;DHT22;5840;46.894;15.542;2023-03-20T07:40:07;9.50;99.90
11569;DHT22;5840;46.894;15.542;2023-03-20T07:42:34;9.50;99.90
11569;DHT22;5840;46.894;15.542;2023-03-20T07:45:02;9.60;99.90
11569;DHT22;5840;46.894;15.542;2023-03-20T07:47:29;9.60;99.90
11569;DHT22;5840;46.894;15.542;2023-03-20T07:49:55;9.70;99.90
11569;DHT22;5840;46.894;15.542;2023-03-20T07:52:22;9.80;99.90
11569;DHT22;5840;46.894;15.542;2023-03-20T07:54:51;9.80;99.90
11569;DHT22;5840;46.894;15.542;2023-03-20T07:57:18;10.00;99.90
11569;DHT22;5840;46.894;15.542;2023-03-20T07:59:45;10.10;99.90
11569;DHT22;5840;46.894;15.542;2023-03-20T08:02:13;10.20;99.90
11569;DHT22;5840;46.894;15.542;2023-03-20T08:04:41;10.40;99.90
11569;DHT22;5840;46.894;15.542;2023-03-20T08:07:08;10.50;99.90
11569;DHT22;5840;46.894;15.542;2023-03-20T08:09:35;10.60;99.90
11569;DHT22;5840;46.894;15.542;2023-03-20T08:12:04;10.80;99.90
11569;DHT22;5840;46.894;15.542;2023-03-20T08:14:31;11.00;99.90
11569;DHT22;5840;46.894;15.542;2023-03-20T08:16:58;11.20;99.90
11569;DHT22;5840;46.894;15.542;2023-03-20T08:19:25;11.40;99.90
11569;DHT22;5840;46.894;15.542;2023-03-20T08:21:52;11.50;99.90
11569;DHT22;5840;46.894;15.542;2023-03-20T08:24:19;11.50;99.90
11569;DHT22;5840;46.894;15.542;2023-03-20T08:26:47;11.70;99.90
11569;DHT22;5840;46.894;15.542;2023-03-20T08:29:16;11.80;99.90
11569;DHT22;5840;46.894;15.542;2023-03-20T08:31:43;11.90;99.90
11569;DHT22;5840;46.894;15.542;2023-03-20T08:34:10;12.00;99.90
11569;DHT22;5840;46.894;15.542;2023-03-20T08:36:37;12.30;99.90
11569;DHT22;5840;46.894;15.542;2023-03-20T08:39:06;12.70;99.90
11569;DHT22;5840;46.894;15.542;2023-03-20T08:41:35;12.90;99.90
11569;DHT22;5840;46.894;15.542;2023-03-20T08:44:03;13.00;99.60
11569;DHT22;5840;46.894;15.542;2023-03-20T08:46:32;13.00;99.30
11569;DHT22;5840;46.894;15.542;2023-03-20T08:48:59;13.00;99.10
11569;DHT22;5840;46.894;15.542;2023-03-20T08:51:26;13.00;98.30
11569;DHT22;5840;46.894;15.542;2023-03-20T08:53:53;13.00;99.10
11569;DHT22;5840;46.894;15.542;2023-03-20T08:56:20;13.10;99.50
11569;DHT22;5840;46.894;15.542;2023-03-20T08:58:47;13.10;98.60
11569;DHT22;5840;46.894;15.542;2023-03-20T09:01:14;13.10;98.80
11569;DHT22;5840;46.894;15.542;2023-03-20T09:03:42;13.20;98.50
11569;DHT22;5840;46.894;15.542;2023-03-20T09:06:11;13.20;98.20
11569;DHT22;5840;46.894;15.542;2023-03-20T09:08:38;13.30;98.70
11569;DHT22;5840;46.894;15.542;2023-03-20T09:11:06;13.70;98.70
11569;DHT22;5840;46.894;15.542;2023-03-20T09:13:33;14.20;98.80
11569;DHT22;5840;46.894;15.542;2023-03-20T09:16:01;14.70;96.50
11569;DHT22;5840;46.894;15.542;2023-03-20T09:18:28;15.10;96.10
11569;DHT22;5840;46.894;15.542;2023-03-20T09:20:57;15.40;95.40
11569;DHT22;5840;46.894;15.542;2023-03-20T09:23:24;15.60;94.90
11569;DHT22;5840;46.894;15.542;2023-03-20T09:25:51;15.90;96.00
11569;DHT22;5840;46.894;15.542;2023-03-20T09:28:18;15.80;94.30
11569;DHT22;5840;46.894;15.542;2023-03-20T09:30:45;15.60;94.50
11569;DHT22;5840;46.894;15.542;2023-03-20T09:33:12;15.60;94.10
11569;DHT22;5840;46.894;15.542;2023-03-20T09:35:40;15.70;93.50
11569;DHT22;5840;46.894;15.542;2023-03-20T09:38:08;15.80;92.80
11569;DHT22;5840;46.894;15.542;2023-03-20T09:40:48;15.80;92.60
11569;DHT22;5840;46.894;15.542;2023-03-20T09:43:26;15.80;92.50
11569;DHT22;5840;46.894;15.542;2023-03-20T09:45:59;15.70;92.20
11569;DHT22;5840;46.894;15.542;2023-03-20T09:48:32;15.70;92.10
11569;DHT22;5840;46.894;15.542;2023-03-20T09:51:06;15.80;92.50
11569;DHT22;5840;46.894;15.542;2023-03-20T09:53:40;15.90;92.30
11569;DHT22;5840;46.894;15.542;2023-03-20T09:56:13;16.00;91.90
11569;DHT22;5840;46.894;15.542;2023-03-20T09:58:41;16.20;91.60
11569;DHT22;5840;46.894;15.542;2023-03-20T10:01:12;16.30;91.60
11569;DHT22;5840;46.894;15.542;2023-03-20T10:03:43;16.40;91.50
11569;DHT22;5840;46.894;15.542;2023-03-20T10:06:15;16.30;88.00
11569;DHT22;5840;46.894;15.542;2023-03-20T10:08:45;16.30;90.50
11569;DHT22;5840;46.894;15.542;2023-03-20T10:11:23;16.30;88.70
11569;DHT22;5840;46.894;15.542;2023-03-20T10:14:09;16.40;88.30
11569;DHT22;5840;46.894;15.542;2023-03-20T10:16:47;16.30;89.80
11569;DHT22;5840;46.894;15.542;2023-03-20T10:19:22;16.40;88.10
11569;DHT22;5840;46.894;15.542;2023-03-20T10:21:56;16.50;87.60
11569;DHT22;5840;46.894;15.542;2023-03-20T10:24:28;16.60;89.00
11569;DHT22;5840;46.894;15.542;2023-03-20T10:27:00;16.70;88.30
11569;DHT22;5840;46.894;15.542;2023-03-20T10:29:36;16.80;87.10
11569;DHT22;5840;46.894;15.542;2023-03-20T10:32:09;16.80;88.30
11569;DHT22;5840;46.894;15.542;2023-03-20T10:34:50;16.80;86.40
11569;DHT22;5840;46.894;15.542;2023-03-20T10:37:28;16.70;85.60
11569;DHT22;5840;46.894;15.542;2023-03-20T10:40:03;16.80;85.30
11569;DHT22;5840;46.894;15.542;2023-03-20T10:42:40;16.90;87.00
11569;DHT22;5840;46.894;15.542;2023-03-20T10:45:20;17.00;86.90
11569;DHT22;5840;46.894;15.542;2023-03-20T10:47:53;17.10;85.90
11569;DHT22;5840;46.894;15.542;2023-03-20T10:50:23;17.20;85.00
11569;DHT22;5840;46.894;15.542;2023-03-20T10:52:55;17.30;86.10
11569;DHT22;5840;46.894;15.542;2023-03-20T10:55:25;17.20;86.20
11569;DHT22;5840;46.894;15.542;2023-03-20T10:57:56;17.20;86.90
11569;DHT22;5840;46.894;15.542;2023-03-20T11:00:26;17.20;86.60
11569;DHT22;5840;46.894;15.542;2023-03-20T11:02:53;17.20;88.10
11569;DHT22;5840;46.894;15.542;2023-03-20T11:05:22;17.10;88.20
11569;DHT22;5840;46.894;15.542;2023-03-20T11:08:00;17.20;87.70
11569;DHT22;5840;46.894;15.542;2023-03-20T11:10:30;17.20;87.50
11569;DHT22;5840;46.894;15.542;2023-03-20T11:13:11;17.10;85.80
11569;DHT22;5840;46.894;15.542;2023-03-20T11:15:40;17.10;86.10
11569;DHT22;5840;46.894;15.542;2023-03-20T11:18:10;17.10;86.30
11569;DHT22;5840;46.894;15.542;2023-03-20T11:20:44;17.10;85.40
11569;DHT22;5840;46.894;15.542;2023-03-20T11:23:14;17.00;85.90
11569;DHT22;5840;46.894;15.542;2023-03-20T11:25:49;17.00;86.90
11569;DHT22;5840;46.894;15.542;2023-03-20T11:28:26;16.90;86.40
11569;DHT22;5840;46.894;15.542;2023-03-20T11:31:01;16.90;88.30
11569;DHT22;5840;46.894;15.542;2023-03-20T11:33:29;16.90;86.80
11569;DHT22;5840;46.894;15.542;2023-03-20T11:35:58;16.90;86.40
11569;DHT22;5840;46.894;15.542;2023-03-20T11:38:25;16.90;87.30
11569;DHT22;5840;46.894;15.542;2023-03-20T11:40:57;16.90;87.30
11569;DHT22;5840;46.894;15.542;2023-03-20T11:43:25;17.00;88.20
11569;DHT22;5840;46.894;15.542;2023-03-20T11:45:54;17.00;86.10
11569;DHT22;5840;46.894;15.542;2023-03-20T11:48:23;17.00;85.30
11569;DHT22;5840;46.894;15.542;2023-03-20T11:50:58;17.00;86.50
11569;DHT22;5840;46.894;15.542;2023-03-20T11:53:29;17.00;85.90
11569;DHT22;5840;46.894;15.542;2023-03-20T11:56:03;17.10;86.60
11569;DHT22;5840;46.894;15.542;2023-03-20T11:58:31;17.20;86.90
11569;DHT22;5840;46.894;15.542;2023-03-20T12:00:59;17.20;87.20
11569;DHT22;5840;46.894;15.542;2023-03-20T12:03:38;17.40;85.40
11569;DHT22;5840;46.894;15.542;2023-03-20T12:06:08;17.60;86.90
11569;DHT22;5840;46.894;15.542;2023-03-20T12:08:39;18.00;83.50
11569;DHT22;5840;46.894;15.542;2023-03-20T12:11:20;18.40;87.10
11569;DHT22;5840;46.894;15.542;2023-03-20T12:13:49;18.70;83.00
11569;DHT22;5840;46.894;15.542;2023-03-20T12:16:19;18.90;83.80
11569;DHT22;5840;46.894;15.542;2023-03-20T12:18:53;18.90;84.90
11569;DHT22;5840;46.894;15.542;2023-03-20T12:21:23;18.90;81.30
11569;DHT22;5840;46.894;15.542;2023-03-20T12:23:56;18.90;84.00
11569;DHT22;5840;46.894;15.542;2023-03-20T12:26:31;19.00;82.20
11569;DHT22;5840;46.894;15.542;2023-03-20T12:29:05;19.00;81.70
11569;DHT22;5840;46.894;15.542;2023-03-20T12:31:38;19.00;81.70
11569;DHT22;5840;46.894;15.542;2023-03-20T12:34:12;18.90;81.50
11569;DHT22;5840;46.894;15.542;2023-03-20T12:36:42;18.80;83.60
11569;DHT22;5840;46.894;15.542;2023-03-20T12:39:13;18.70;82.30
11569;DHT22;5840;46.894;15.542;2023-03-20T12:41:52;18.60;82.60
11569;DHT22;5840;46.894;15.542;2023-03-20T12:44:28;18.50;84.50
11569;DHT22;5840;46.894;15.542;2023-03-20T12:47:05;18.40;85.10
11569;DHT22;5840;46.894;15.542;2023-03-20T12:49:43;18.40;86.10
11569;DHT22;5840;46.894;15.542;2023-03-20T12:52:21;18.30;84.80
11569;DHT22;5840;46.894;15.542;2023-03-20T12:55:20;18.30;85.90
11569;DHT22;5840;46.894;15.542;2023-03-20T12:58:00;18.20;86.30
11569;DHT22;5840;46.894;15.542;2023-03-20T13:00:32;18.10;86.30
11569;DHT22;5840;46.894;15.542;2023-03-20T13:03:12;18.10;86.20
11569;DHT22;5840;46.894;15.542;2023-03-20T13:05:49;18.00;85.20
11569;DHT22;5840;46.894;15.542;2023-03-20T13:11:28;17.70;87.60
11569;DHT22;5840;46.894;15.542;2023-03-20T13:14:02;17.70;88.40
11569;DHT22;5840;46.894;15.542;2023-03-20T13:16:40;17.50;87.90
11569;DHT22;5840;46.894;15.542;2023-03-20T13:19:15;17.50;87.10
11569;DHT22;5840;46.894;15.542;2023-03-20T13:21:52;17.40;88.30
11569;DHT22;5840;46.894;15.542;2023-03-20T13:24:40;17.30;88.10
11569;DHT22;5840;46.894;15.542;2023-03-20T13:27:23;17.30;87.30
11569;DHT22;5840;46.894;15.542;2023-03-20T13:29:57;17.20;88.00
11569;DHT22;5840;46.894;15.542;2023-03-20T13:32:32;17.20;88.00
11569;DHT22;5840;46.894;15.542;2023-03-20T13:35:21;17.10;87.50
11569;DHT22;5840;46.894;15.542;2023-03-20T13:37:51;17.10;87.60
11569;DHT22;5840;46.894;15.542;2023-03-20T13:40:22;17.00;88.00
11569;DHT22;5840;46.894;15.542;2023-03-20T13:42:53;17.00;88.10
11569;DHT22;5840;46.894;15.542;2023-03-20T13:45:28;17.00;88.50
11569;DHT22;5840;46.894;15.542;2023-03-20T13:47:58;17.00;88.20
11569;DHT22;5840;46.894;15.542;2023-03-20T13:50:38;17.00;87.50
11569;DHT22;5840;46.894;15.542;2023-03-20T13:53:16;16.90;86.40
11569;DHT22;5840;46.894;15.542;2023-03-20T13:55:52;16.80;87.00
11569;DHT22;5840;46.894;15.542;2023-03-20T13:58:43;16.80;87.80
11569;DHT22;5840;46.894;15.542;2023-03-20T14:01:17;16.70;87.90
11569;DHT22;5840;46.894;15.542;2023-03-20T14:03:48;16.70;87.20
11569;DHT22;5840;46.894;15.542;2023-03-20T14:06:17;16.60;87.90
11569;DHT22;5840;46.894;15.542;2023-03-20T14:08:47;16.60;87.90
11569;DHT22;5840;46.894;15.542;2023-03-20T14:11:26;16.60;88.20
11569;DHT22;5840;46.894;15.542;2023-03-20T14:14:06;16.60;88.30
11569;DHT22;5840;46.894;15.542;2023-03-20T14:16:35;16.60;88.80
11569;DHT22;5840;46.894;15.542;2023-03-20T14:19:07;16.50;88.80
11569;DHT22;5840;46.894;15.542;2023-03-20T14:21:35;16.50;89.30
11569;DHT22;5840;46.894;15.542;2023-03-20T14:24:03;16.50;89.00
11569;DHT22;5840;46.894;15.542;2023-03-20T14:26:34;16.40;87.80
11569;DHT22;5840;46.894;15.542;2023-03-20T14:34:48;16.40;88.90
11569;DHT22;5840;46.894;15.542;2023-03-20T14:37:55;16.40;88.70
11569;DHT22;5840;46.894;15.542;2023-03-20T14:40:28;16.40;88.00
11569;DHT22;5840;46.894;15.542;2023-03-20T14:42:59;16.40;87.80
11569;DHT22;5840;46.894;15.542;2023-03-20T14:45:44;16.40;89.10
11569;DHT22;5840;46.894;15.542;2023-03-20T14:48:29;16.40;89.40
11569;DHT22;5840;46.894;15.542;2023-03-20T14:51:06;16.40;88.10
11569;DHT22;5840;46.894;15.542;2023-03-20T14:53:34;16.40;89.20
11569;DHT22;5840;46.894;15.542;2023-03-20T14:56:07;16.40;88.70
11569;DHT22;5840;46.894;15.542;2023-03-20T15:01:25;16.40;88.10
11569;DHT22;5840;46.894;15.542;2023-03-20T15:03:56;16.40;88.00
11569;DHT22;5840;46.894;15.542;2023-03-20T15:06:25;16.40;88.40
11569;DHT22;5840;46.894;15.542;2023-03-20T15:08:55;16.40;88.10
11569;DHT22;5840;46.894;15.542;2023-03-20T15:11:24;16.40;87.90
11569;DHT22;5840;46.894;15.542;2023-03-20T15:13:51;16.40;88.50
11569;DHT22;5840;46.894;15.542;2023-03-20T15:16:26;16.40;88.90
11569;DHT22;5840;46.894;15.542;2023-03-20T15:18:55;16.30;87.70
11569;DHT22;5840;46.894;15.542;2023-03-20T15:21:28;16.30;87.50
11569;DHT22;5840;46.894;15.542;2023-03-20T15:23:56;16.40;87.40
11569;DHT22;5840;46.894;15.542;2023-03-20T15:26:24;16.40;87.60
11569;DHT22;5840;46.894;15.542;2023-03-20T15:28:58;16.40;87.20
11569;DHT22;5840;46.894;15.542;2023-03-20T15:31:28;16.40;88.90
11569;DHT22;5840;46.894;15.542;2023-03-20T15:34:00;16.30;87.70
11569;DHT22;5840;46.894;15.542;2023-03-20T15:36:32;16.30;86.80
11569;DHT22;5840;46.894;15.542;2023-03-20T15:39:05;16.30;87.30
11569;DHT22;5840;46.894;15.542;2023-03-20T15:41:34;16.30;87.70
11569;DHT22;5840;46.894;15.542;2023-03-20T15:44:14;16.30;87.40
11569;DHT22;5840;46.894;15.542;2023-03-20T15:46:53;16.20;87.00
11569;DHT22;5840;46.894;15.542;2023-03-20T15:49:23;16.20;86.80
11569;DHT22;5840;46.894;15.542;2023-03-20T15:51:51;16.10;87.00
11569;DHT22;5840;46.894;15.542;2023-03-20T15:54:20;16.10;86.30
11569;DHT22;5840;46.894;15.542;2023-03-20T15:56:50;16.20;86.30
11569;DHT22;5840;46.894;15.542;2023-03-20T15:59:19;16.20;86.50
11569;DHT22;5840;46.894;15.542;2023-03-20T16:01:49;16.30;87.10
11569;DHT22;5840;46.894;15.542;2023-03-20T16:04:17;16.30;86.90
11569;DHT22;5840;46.894;15.542;2023-03-20T16:06:48;16.30;86.70
11569;DHT22;5840;46.894;15.542;2023-03-20T16:09:17;16.30;86.80
11569;DHT22;5840;46.894;15.542;2023-03-20T16:11:46;16.30;86.90
11569;DHT22;5840;46.894;15.542;2023-03-20T16:14:16;16.30;87.60
11569;DHT22;5840;46.894;15.542;2023-03-20T16:16:47;16.20;86.60
11569;DHT22;5840;46.894;15.542;2023-03-20T16:19:14;16.00;86.80
11569;DHT22;5840;46.894;15.542;2023-03-20T16:21:45;15.90;87.30